createdAt,value
2022-11-23T00:01:16.567Z,7.60
2022-11-23T00:03:44.113Z,7.60
2022-11-23T00:06:10.920Z,7.60
2022-11-23T00:08:38.010Z,7.50
2022-11-23T00:11:04.770Z,7.50
2022-11-23T00:13:31.505Z,7.50
2022-11-23T00:15:58.187Z,7.50
2022-11-23T00:18:24.918Z,7.60
2022-11-23T00:20:51.701Z,7.50
2022-11-23T00:23:18.470Z,7.50
2022-11-23T00:25:45.950Z,7.50
2022-11-23T00:28:13.094Z,7.50
2022-11-23T00:30:40.044Z,7.40
2022-11-23T00:33:06.984Z,7.50
2022-11-23T00:35:34.023Z,7.50
2022-11-23T00:38:01.457Z,7.50
2022-11-23T00:40:28.215Z,7.60
2022-11-23T00:42:55.063Z,7.60
2022-11-23T00:45:22.421Z,7.60
2022-11-23T00:47:49.275Z,7.60
2022-11-23T00:50:16.385Z,7.50
2022-11-23T00:52:43.166Z,7.50
2022-11-23T00:55:10.030Z,7.60
2022-11-23T00:57:37.599Z,7.50
2022-11-23T01:00:05.345Z,7.50
2022-11-23T01:02:34.010Z,7.50
2022-11-23T01:05:00.781Z,7.50
2022-11-23T01:07:30.708Z,7.60
2022-11-23T01:09:58.029Z,7.60
2022-11-23T01:12:24.769Z,7.60
2022-11-23T01:14:52.954Z,7.60
2022-11-23T01:17:22.031Z,7.60
2022-11-23T01:19:48.773Z,7.60
2022-11-23T01:22:15.534Z,7.60
2022-11-23T01:24:42.475Z,7.60
2022-11-23T01:27:09.225Z,7.60
2022-11-23T01:29:35.986Z,7.70
2022-11-23T01:32:02.966Z,7.70
2022-11-23T01:34:29.823Z,7.60
2022-11-23T01:36:59.192Z,7.60
2022-11-23T01:39:27.942Z,7.70
2022-11-23T01:41:55.656Z,7.60
2022-11-23T01:44:30.281Z,7.70
2022-11-23T01:47:01.527Z,7.70
2022-11-23T01:49:49.616Z,7.70
2022-11-23T01:52:18.219Z,7.80
2022-11-23T01:54:46.612Z,7.80
2022-11-23T01:57:17.849Z,7.80
2022-11-23T01:59:45.102Z,7.80
2022-11-23T02:02:12.640Z,7.80
2022-11-23T02:04:40.482Z,7.80
2022-11-23T02:07:07.661Z,7.90
2022-11-23T02:09:35.729Z,7.80
2022-11-23T02:12:02.895Z,7.80
2022-11-23T02:14:29.946Z,7.90
2022-11-23T02:16:58.440Z,7.90
2022-11-23T02:19:33.366Z,7.90
2022-11-23T02:22:01.059Z,7.90
2022-11-23T02:24:33.837Z,7.90
2022-11-23T02:27:01.998Z,7.90
2022-11-23T02:29:29.813Z,7.90
2022-11-23T02:32:00.709Z,7.80
2022-11-23T02:34:27.781Z,7.80
2022-11-23T02:36:55.816Z,7.80
2022-11-23T02:39:31.045Z,7.80
2022-11-23T02:41:58.566Z,7.80
2022-11-23T02:44:30.603Z,7.70
2022-11-23T02:46:58.332Z,7.60
2022-11-23T02:49:25.521Z,7.60
2022-11-23T02:51:53.053Z,7.60
2022-11-23T02:54:19.922Z,7.60
2022-11-23T02:56:49.010Z,7.70
2022-11-23T02:59:17.515Z,7.70
2022-11-23T03:05:07.374Z,7.70
2022-11-23T03:07:52.910Z,7.70
2022-11-23T03:10:20.471Z,7.70
2022-11-23T03:12:50.452Z,7.70
2022-11-23T03:15:18.312Z,7.80
2022-11-23T03:17:48.020Z,7.70
2022-11-23T03:20:16.516Z,7.70
2022-11-23T03:22:57.921Z,7.70
2022-11-23T03:25:25.051Z,7.70
2022-11-23T03:27:55.107Z,7.70
2022-11-23T03:30:22.474Z,7.70
2022-11-23T03:32:49.904Z,7.60
2022-11-23T03:46:02.901Z,7.60
2022-11-23T03:48:30.184Z,7.60
2022-11-23T03:50:57.707Z,7.60
2022-11-23T03:53:24.538Z,7.70
2022-11-23T03:55:51.687Z,7.70
2022-11-23T03:58:18.602Z,7.70
2022-11-23T04:00:46.140Z,7.70
2022-11-23T04:03:15.189Z,7.70
2022-11-23T04:06:00.953Z,7.70
2022-11-23T04:08:47.997Z,7.70
2022-11-23T04:11:22.260Z,7.70
2022-11-23T04:13:49.981Z,7.70
2022-11-23T04:16:18.151Z,7.70
2022-11-23T04:18:45.721Z,7.70
2022-11-23T04:21:12.793Z,7.70
2022-11-23T04:23:39.565Z,7.70
2022-11-23T04:26:09.557Z,7.70
2022-11-23T04:28:39.767Z,7.70
2022-11-23T04:31:07.360Z,7.70
2022-11-23T04:33:44.557Z,7.70
2022-11-23T04:36:12.898Z,7.80
2022-11-23T04:38:39.974Z,7.80
2022-11-23T04:41:08.411Z,7.80
2022-11-23T04:43:36.021Z,7.80
2022-11-23T04:46:03.444Z,7.80
2022-11-23T04:48:32.041Z,7.80
2022-11-23T04:50:59.366Z,7.80
2022-11-23T04:53:32.461Z,7.80
2022-11-23T04:56:00.234Z,7.90
2022-11-23T04:58:30.279Z,7.90
2022-11-23T05:01:01.460Z,7.90
2022-11-23T05:03:31.183Z,7.90
2022-11-23T05:05:58.708Z,8.00
2022-11-23T05:08:26.285Z,7.90
2022-11-23T05:11:01.615Z,7.90
2022-11-23T05:13:29.465Z,7.90
2022-11-23T05:15:56.606Z,7.80
2022-11-23T05:18:27.863Z,7.70
2022-11-23T05:20:55.090Z,7.70
2022-11-23T05:23:22.522Z,7.60
2022-11-23T05:25:52.102Z,7.60
2022-11-23T05:31:11.989Z,7.70
2022-11-23T05:33:39.137Z,7.80
2022-11-23T05:36:08.863Z,7.80
2022-11-23T05:38:38.648Z,7.90
2022-11-23T05:41:11.534Z,7.90
2022-11-23T05:43:41.547Z,7.90
2022-11-23T05:46:11.229Z,7.90
2022-11-23T05:48:39.060Z,7.90
2022-11-23T05:51:10.317Z,7.90
2022-11-23T05:53:42.459Z,7.90
2022-11-23T05:56:18.496Z,7.90
2022-11-23T05:59:05.367Z,7.90
2022-11-23T06:01:35.077Z,7.90
2022-11-23T06:04:03.961Z,7.90
2022-11-23T06:06:36.031Z,7.90
2022-11-23T06:09:03.132Z,7.90
2022-11-23T06:11:32.642Z,7.90
2022-11-23T06:14:07.758Z,7.90
2022-11-23T06:16:38.842Z,7.90
2022-11-23T06:19:30.705Z,7.90
2022-11-23T06:21:58.525Z,7.90
2022-11-23T06:24:27.005Z,7.90
2022-11-23T06:27:18.316Z,7.90
2022-11-23T06:29:47.313Z,7.90
2022-11-23T06:32:15.242Z,7.90
2022-11-23T06:34:42.755Z,7.90
2022-11-23T06:37:09.742Z,7.80
2022-11-23T06:39:36.852Z,7.80
2022-11-23T06:42:31.330Z,7.70
2022-11-23T06:44:53.160Z,7.70
2022-11-23T06:47:26.043Z,7.70
2022-11-23T06:49:54.104Z,7.70
2022-11-23T06:52:27.587Z,7.60
2022-11-23T06:54:54.714Z,7.60
2022-11-23T06:57:23.961Z,7.60
2022-11-23T06:59:51.122Z,7.60
2022-11-23T07:02:24.536Z,7.60
2022-11-23T07:04:54.643Z,7.60
2022-11-23T07:07:21.595Z,7.70
2022-11-23T07:09:57.651Z,7.60
2022-11-23T07:12:32.157Z,7.50
2022-11-23T07:15:00.859Z,7.60
2022-11-23T07:17:33.992Z,7.60
2022-11-23T07:20:01.054Z,7.60
2022-11-23T07:22:27.924Z,7.60
2022-11-23T07:24:54.793Z,7.70
2022-11-23T07:27:21.935Z,7.70
2022-11-23T07:29:48.993Z,7.70
2022-11-23T07:32:15.885Z,7.70
2022-11-23T07:34:42.893Z,7.70
2022-11-23T07:37:10.117Z,7.80
2022-11-23T07:39:57.879Z,7.80
2022-11-23T07:42:34.598Z,7.80
2022-11-23T07:45:05.076Z,7.90
2022-11-23T07:47:32.227Z,7.80
2022-11-23T07:49:58.971Z,7.80
2022-11-23T07:52:25.907Z,7.80
2022-11-23T07:54:52.886Z,7.80
2022-11-23T07:57:28.157Z,7.90
2022-11-23T07:59:54.914Z,7.80
2022-11-23T08:02:21.801Z,7.80
2022-11-23T08:04:48.763Z,7.80
2022-11-23T08:07:15.566Z,7.80
2022-11-23T08:09:42.798Z,7.80
2022-11-23T08:12:09.609Z,7.90
2022-11-23T08:14:36.502Z,7.90
2022-11-23T08:17:03.606Z,7.90
2022-11-23T08:19:30.562Z,7.90
2022-11-23T08:21:57.499Z,8.00
2022-11-23T08:24:24.754Z,8.10
2022-11-23T08:26:52.312Z,8.00
2022-11-23T08:29:19.750Z,8.10
2022-11-23T08:31:46.703Z,8.10
2022-11-23T08:34:14.260Z,8.10
2022-11-23T08:36:41.506Z,8.10
2022-11-23T08:39:11.243Z,8.10
2022-11-23T08:41:38.683Z,8.10
2022-11-23T08:44:06.055Z,8.20
2022-11-23T08:46:33.064Z,8.20
2022-11-23T08:48:59.931Z,8.20
2022-11-23T08:51:26.911Z,8.20
2022-11-23T08:53:54.664Z,8.20
2022-11-23T08:56:22.075Z,8.20
2022-11-23T08:58:49.355Z,8.30
2022-11-23T09:01:19.525Z,8.30
2022-11-23T09:03:46.332Z,8.40
2022-11-23T09:06:13.076Z,8.40
2022-11-23T09:08:40.012Z,8.40
2022-11-23T09:11:08.180Z,8.50
2022-11-23T09:13:35.646Z,8.50
2022-11-23T09:16:03.262Z,8.60
2022-11-23T09:18:36.829Z,8.70
2022-11-23T09:21:04.887Z,8.70
2022-11-23T09:23:31.930Z,8.80
2022-11-23T09:25:59.577Z,8.90
2022-11-23T09:28:28.566Z,8.90
2022-11-23T09:30:56.260Z,9.00
2022-11-23T09:33:25.662Z,9.00
2022-11-23T09:36:02.945Z,9.10
2022-11-23T09:38:54.719Z,9.00
2022-11-23T09:41:23.137Z,9.10
2022-11-23T09:43:56.309Z,9.10
2022-11-23T09:46:37.031Z,9.20
2022-11-23T09:49:04.099Z,9.10
2022-11-23T09:51:30.970Z,9.00
2022-11-23T09:54:08.779Z,9.00
2022-11-23T09:56:36.684Z,9.00
2022-11-23T09:59:12.912Z,9.10
2022-11-23T10:01:40.679Z,9.20
2022-11-23T10:04:07.580Z,9.20
2022-11-23T10:06:37.827Z,9.30
2022-11-23T10:09:17.325Z,9.40
2022-11-23T10:12:05.363Z,9.40
2022-11-23T10:14:41.460Z,9.40
2022-11-23T10:17:26.984Z,9.50
2022-11-23T10:20:12.523Z,9.60
2022-11-23T10:22:39.352Z,9.60
2022-11-23T10:25:13.762Z,9.60
2022-11-23T10:27:40.601Z,9.60
2022-11-23T10:30:11.920Z,9.70
2022-11-23T10:32:41.790Z,9.70
2022-11-23T10:35:08.615Z,9.80
2022-11-23T10:37:35.475Z,9.70
2022-11-23T16:31:31.636Z,5.50
2022-11-23T16:34:06.143Z,5.40
2022-11-23T16:48:53.108Z,5.10
2022-11-23T16:51:40.870Z,5.00
2022-11-23T16:54:14.522Z,4.90
2022-11-23T16:56:50.260Z,4.90
2022-11-23T16:59:20.926Z,4.80
2022-11-23T17:01:57.947Z,4.80
2022-11-23T17:04:26.232Z,4.70
2022-11-23T17:07:00.555Z,4.70
2022-11-23T17:09:31.567Z,4.70
2022-11-23T17:12:00.471Z,4.60
2022-11-23T17:14:34.761Z,4.50
2022-11-23T17:17:06.795Z,4.50
2022-11-23T17:19:35.237Z,4.50
2022-11-23T17:22:02.794Z,4.30
2022-11-23T17:24:30.962Z,4.30
2022-11-23T17:26:59.844Z,4.20
2022-11-23T17:29:27.349Z,4.20
2022-11-23T17:31:55.657Z,4.10
2022-11-23T17:34:23.446Z,4.10
2022-11-23T17:36:52.065Z,4.10
2022-11-23T17:39:26.359Z,4.00
2022-11-23T17:41:54.138Z,3.90
2022-11-23T17:44:24.904Z,3.90
2022-11-23T17:47:02.042Z,3.80
2022-11-23T17:49:33.675Z,3.80
2022-11-23T17:52:08.278Z,3.80
2022-11-23T17:57:26.607Z,3.70
2022-11-23T18:00:01.843Z,3.60
2022-11-23T18:02:47.083Z,3.60
2022-11-23T18:05:23.470Z,3.50
2022-11-23T18:07:58.951Z,3.50
2022-11-23T18:10:32.783Z,3.50
2022-11-23T18:13:01.020Z,3.40
2022-11-23T18:15:37.829Z,3.40
2022-11-23T18:18:05.900Z,3.30
2022-11-23T18:26:37.553Z,3.20
2022-11-23T18:29:12.771Z,3.10
